sensor_id;sensor_type;location;lat;lon;timestamp;temperature;humidity
16271;DHT22;8243;49.048;8.396;2023-05-16T00:00:38;13.80;99.90
16271;DHT22;8243;49.048;8.396;2023-05-16T00:03:04;13.80;99.90
16271;DHT22;8243;49.048;8.396;2023-05-16T00:05:30;13.80;99.90
16271;DHT22;8243;49.048;8.396;2023-05-16T00:07:56;13.80;99.90
16271;DHT22;8243;49.048;8.396;2023-05-16T00:10:21;13.70;99.90
16271;DHT22;8243;49.048;8.396;2023-05-16T00:12:47;13.70;99.90
16271;DHT22;8243;49.048;8.396;2023-05-16T00:15:16;13.70;99.90
16271;DHT22;8243;49.048;8.396;2023-05-16T00:17:42;13.70;99.90
16271;DHT22;8243;49.048;8.396;2023-05-16T00:20:13;13.70;99.90
16271;DHT22;8243;49.048;8.396;2023-05-16T00:22:42;13.70;99.90
16271;DHT22;8243;49.048;8.396;2023-05-16T00:25:08;13.70;99.90
16271;DHT22;8243;49.048;8.396;2023-05-16T00:27:34;13.70;99.90
16271;DHT22;8243;49.048;8.396;2023-05-16T00:30:02;13.70;99.90
16271;DHT22;8243;49.048;8.396;2023-05-16T00:32:27;13.80;99.90
16271;DHT22;8243;49.048;8.396;2023-05-16T00:34:53;13.80;99.90
16271;DHT22;8243;49.048;8.396;2023-05-16T00:37:19;13.80;99.90
16271;DHT22;8243;49.048;8.396;2023-05-16T00:39:45;13.70;99.90
16271;DHT22;8243;49.048;8.396;2023-05-16T00:42:11;13.70;99.90
16271;DHT22;8243;49.048;8.396;2023-05-16T00:44:36;13.70;99.90
16271;DHT22;8243;49.048;8.396;2023-05-16T00:47:02;13.60;99.90
16271;DHT22;8243;49.048;8.396;2023-05-16T00:49:28;13.60;99.90
16271;DHT22;8243;49.048;8.396;2023-05-16T00:51:55;13.60;99.90
16271;DHT22;8243;49.048;8.396;2023-05-16T00:54:22;13.60;99.90
16271;DHT22;8243;49.048;8.396;2023-05-16T00:56:50;13.50;99.90
16271;DHT22;8243;49.048;8.396;2023-05-16T00:59:16;13.60;99.90
16271;DHT22;8243;49.048;8.396;2023-05-16T01:01:45;13.60;99.90
16271;DHT22;8243;49.048;8.396;2023-05-16T01:04:11;13.60;99.90
16271;DHT22;8243;49.048;8.396;2023-05-16T01:06:37;13.50;99.90
16271;DHT22;8243;49.048;8.396;2023-05-16T01:09:04;13.50;99.90
16271;DHT22;8243;49.048;8.396;2023-05-16T01:16:48;13.50;99.90
16271;DHT22;8243;49.048;8.396;2023-05-16T01:28:08;13.40;99.90
16271;DHT22;8243;49.048;8.396;2023-05-16T01:30:37;13.30;99.90
16271;DHT22;8243;49.048;8.396;2023-05-16T01:33:03;13.30;99.90
16271;DHT22;8243;49.048;8.396;2023-05-16T01:35:29;13.30;99.90
16271;DHT22;8243;49.048;8.396;2023-05-16T01:43:45;13.30;99.90
16271;DHT22;8243;49.048;8.396;2023-05-16T01:46:15;13.30;99.90
16271;DHT22;8243;49.048;8.396;2023-05-16T01:49:11;13.30;99.90
16271;DHT22;8243;49.048;8.396;2023-05-16T01:51:44;13.30;99.90
16271;DHT22;8243;49.048;8.396;2023-05-16T01:54:12;13.30;99.90
16271;DHT22;8243;49.048;8.396;2023-05-16T01:56:44;13.20;99.90
16271;DHT22;8243;49.048;8.396;2023-05-16T01:59:12;13.20;99.90
16271;DHT22;8243;49.048;8.396;2023-05-16T02:01:38;13.20;99.90
16271;DHT22;8243;49.048;8.396;2023-05-16T02:04:04;13.20;99.90
16271;DHT22;8243;49.048;8.396;2023-05-16T02:06:29;13.10;99.90
16271;DHT22;8243;49.048;8.396;2023-05-16T02:08:55;13.10;99.90
16271;DHT22;8243;49.048;8.396;2023-05-16T02:11:21;13.10;99.90
16271;DHT22;8243;49.048;8.396;2023-05-16T02:13:47;13.00;99.90
16271;DHT22;8243;49.048;8.396;2023-05-16T02:16:13;13.10;99.90
16271;DHT22;8243;49.048;8.396;2023-05-16T02:18:38;13.10;99.90
16271;DHT22;8243;49.048;8.396;2023-05-16T02:21:04;13.10;99.90
16271;DHT22;8243;49.048;8.396;2023-05-16T02:23:29;13.10;99.90
16271;DHT22;8243;49.048;8.396;2023-05-16T02:25:55;13.10;99.90
16271;DHT22;8243;49.048;8.396;2023-05-16T02:28:20;13.10;99.90
16271;DHT22;8243;49.048;8.396;2023-05-16T02:30:55;13.00;99.90
16271;DHT22;8243;49.048;8.396;2023-05-16T02:33:21;13.00;99.90
16271;DHT22;8243;49.048;8.396;2023-05-16T02:35:47;13.00;99.90
16271;DHT22;8243;49.048;8.396;2023-05-16T02:38:12;12.90;99.90
16271;DHT22;8243;49.048;8.396;2023-05-16T02:40:41;12.90;99.90
16271;DHT22;8243;49.048;8.396;2023-05-16T02:43:07;12.90;99.90
16271;DHT22;8243;49.048;8.396;2023-05-16T02:45:32;12.90;99.90
16271;DHT22;8243;49.048;8.396;2023-05-16T02:47:58;12.90;99.90
16271;DHT22;8243;49.048;8.396;2023-05-16T02:50:24;12.80;99.90
16271;DHT22;8243;49.048;8.396;2023-05-16T02:52:49;12.80;99.90
16271;DHT22;8243;49.048;8.396;2023-05-16T02:55:15;12.80;99.90
16271;DHT22;8243;49.048;8.396;2023-05-16T02:57:41;12.80;99.90
16271;DHT22;8243;49.048;8.396;2023-05-16T03:00:07;12.80;99.90
16271;DHT22;8243;49.048;8.396;2023-05-16T03:02:35;12.70;99.90
16271;DHT22;8243;49.048;8.396;2023-05-16T03:05:00;12.70;99.90
16271;DHT22;8243;49.048;8.396;2023-05-16T03:07:26;12.70;99.90
16271;DHT22;8243;49.048;8.396;2023-05-16T03:09:51;12.70;99.90
16271;DHT22;8243;49.048;8.396;2023-05-16T03:12:17;12.70;99.90
16271;DHT22;8243;49.048;8.396;2023-05-16T03:14:42;12.60;99.90
16271;DHT22;8243;49.048;8.396;2023-05-16T03:17:08;12.60;99.90
16271;DHT22;8243;49.048;8.396;2023-05-16T03:19:33;12.60;99.90
16271;DHT22;8243;49.048;8.396;2023-05-16T03:21:59;12.60;99.90
16271;DHT22;8243;49.048;8.396;2023-05-16T03:24:25;12.50;99.90
16271;DHT22;8243;49.048;8.396;2023-05-16T03:26:50;12.50;99.90
16271;DHT22;8243;49.048;8.396;2023-05-16T03:29:16;12.50;99.90
16271;DHT22;8243;49.048;8.396;2023-05-16T03:31:42;12.40;99.90
16271;DHT22;8243;49.048;8.396;2023-05-16T03:34:07;12.40;99.90
16271;DHT22;8243;49.048;8.396;2023-05-16T03:36:33;12.40;99.90
16271;DHT22;8243;49.048;8.396;2023-05-16T03:39:00;12.50;99.90
16271;DHT22;8243;49.048;8.396;2023-05-16T03:41:25;12.40;99.90
16271;DHT22;8243;49.048;8.396;2023-05-16T03:43:51;12.40;99.90
16271;DHT22;8243;49.048;8.396;2023-05-16T03:46:17;12.30;99.90
16271;DHT22;8243;49.048;8.396;2023-05-16T03:48:43;12.40;99.90
16271;DHT22;8243;49.048;8.396;2023-05-16T03:51:08;12.30;99.90
16271;DHT22;8243;49.048;8.396;2023-05-16T03:53:36;12.40;99.90
16271;DHT22;8243;49.048;8.396;2023-05-16T03:56:01;12.40;99.90
16271;DHT22;8243;49.048;8.396;2023-05-16T03:58:28;12.30;99.90
16271;DHT22;8243;49.048;8.396;2023-05-16T04:00:53;12.30;99.90
16271;DHT22;8243;49.048;8.396;2023-05-16T04:03:19;12.30;99.90
16271;DHT22;8243;49.048;8.396;2023-05-16T04:05:53;12.20;99.90
16271;DHT22;8243;49.048;8.396;2023-05-16T04:08:18;12.20;99.90
16271;DHT22;8243;49.048;8.396;2023-05-16T04:10:44;12.20;99.90
16271;DHT22;8243;49.048;8.396;2023-05-16T04:13:09;12.20;99.90
16271;DHT22;8243;49.048;8.396;2023-05-16T04:15:35;12.20;99.90
16271;DHT22;8243;49.048;8.396;2023-05-16T04:18:00;12.10;99.90
16271;DHT22;8243;49.048;8.396;2023-05-16T04:20:26;12.10;99.90
16271;DHT22;8243;49.048;8.396;2023-05-16T04:22:52;12.20;99.90
16271;DHT22;8243;49.048;8.396;2023-05-16T04:25:20;12.20;99.90
16271;DHT22;8243;49.048;8.396;2023-05-16T04:27:46;12.30;99.90
16271;DHT22;8243;49.048;8.396;2023-05-16T04:30:14;12.20;99.90
16271;DHT22;8243;49.048;8.396;2023-05-16T04:32:43;12.30;99.90
16271;DHT22;8243;49.048;8.396;2023-05-16T04:35:09;12.30;99.90
16271;DHT22;8243;49.048;8.396;2023-05-16T04:37:35;12.30;99.90
16271;DHT22;8243;49.048;8.396;2023-05-16T04:40:01;12.30;99.90
16271;DHT22;8243;49.048;8.396;2023-05-16T04:42:27;12.30;99.90
16271;DHT22;8243;49.048;8.396;2023-05-16T04:44:52;12.30;99.90
16271;DHT22;8243;49.048;8.396;2023-05-16T04:47:18;12.30;99.90
16271;DHT22;8243;49.048;8.396;2023-05-16T04:49:44;12.30;99.90
16271;DHT22;8243;49.048;8.396;2023-05-16T04:52:09;12.30;99.90
16271;DHT22;8243;49.048;8.396;2023-05-16T04:54:37;12.30;99.90
16271;DHT22;8243;49.048;8.396;2023-05-16T04:57:03;12.30;99.90
16271;DHT22;8243;49.048;8.396;2023-05-16T04:59:29;12.30;99.90
16271;DHT22;8243;49.048;8.396;2023-05-16T05:01:56;12.30;99.90
16271;DHT22;8243;49.048;8.396;2023-05-16T05:04:21;12.30;99.90
16271;DHT22;8243;49.048;8.396;2023-05-16T05:06:48;12.40;99.90
16271;DHT22;8243;49.048;8.396;2023-05-16T05:09:14;12.40;99.90
16271;DHT22;8243;49.048;8.396;2023-05-16T05:11:39;12.40;99.90
16271;DHT22;8243;49.048;8.396;2023-05-16T05:14:05;12.40;99.90
16271;DHT22;8243;49.048;8.396;2023-05-16T05:16:30;12.40;99.90
16271;DHT22;8243;49.048;8.396;2023-05-16T05:18:57;12.40;99.90
16271;DHT22;8243;49.048;8.396;2023-05-16T05:21:22;12.40;99.90
16271;DHT22;8243;49.048;8.396;2023-05-16T05:23:49;12.40;99.90
16271;DHT22;8243;49.048;8.396;2023-05-16T05:26:16;12.40;99.90
16271;DHT22;8243;49.048;8.396;2023-05-16T05:28:41;12.40;99.90
16271;DHT22;8243;49.048;8.396;2023-05-16T05:31:07;12.40;99.90
16271;DHT22;8243;49.048;8.396;2023-05-16T05:33:33;12.40;99.90
16271;DHT22;8243;49.048;8.396;2023-05-16T05:35:58;12.40;99.90
16271;DHT22;8243;49.048;8.396;2023-05-16T05:38:24;12.40;99.90
16271;DHT22;8243;49.048;8.396;2023-05-16T05:40:52;12.50;99.90
16271;DHT22;8243;49.048;8.396;2023-05-16T05:43:18;12.50;99.90
16271;DHT22;8243;49.048;8.396;2023-05-16T05:45:43;12.40;99.90
16271;DHT22;8243;49.048;8.396;2023-05-16T05:48:09;12.50;99.90
16271;DHT22;8243;49.048;8.396;2023-05-16T05:50:36;12.50;99.90
16271;DHT22;8243;49.048;8.396;2023-05-16T05:53:02;12.60;99.90
16271;DHT22;8243;49.048;8.396;2023-05-16T05:55:27;12.60;99.90
16271;DHT22;8243;49.048;8.396;2023-05-16T05:57:53;12.60;99.90
16271;DHT22;8243;49.048;8.396;2023-05-16T06:00:19;12.60;99.90
16271;DHT22;8243;49.048;8.396;2023-05-16T06:02:44;12.50;99.90
16271;DHT22;8243;49.048;8.396;2023-05-16T06:05:10;12.60;99.90
16271;DHT22;8243;49.048;8.396;2023-05-16T06:07:36;12.60;99.90
16271;DHT22;8243;49.048;8.396;2023-05-16T06:10:01;12.60;99.90
16271;DHT22;8243;49.048;8.396;2023-05-16T06:12:29;12.60;99.90
16271;DHT22;8243;49.048;8.396;2023-05-16T06:14:55;12.60;99.90
16271;DHT22;8243;49.048;8.396;2023-05-16T06:17:23;12.70;99.90
16271;DHT22;8243;49.048;8.396;2023-05-16T06:19:49;12.70;99.90
16271;DHT22;8243;49.048;8.396;2023-05-16T06:22:19;12.70;99.90
16271;DHT22;8243;49.048;8.396;2023-05-16T06:24:45;12.80;99.90
16271;DHT22;8243;49.048;8.396;2023-05-16T06:27:10;12.70;99.90
16271;DHT22;8243;49.048;8.396;2023-05-16T06:29:36;12.80;99.90
16271;DHT22;8243;49.048;8.396;2023-05-16T06:32:01;12.80;99.90
16271;DHT22;8243;49.048;8.396;2023-05-16T06:34:27;12.90;99.90
16271;DHT22;8243;49.048;8.396;2023-05-16T06:36:55;12.90;99.90
16271;DHT22;8243;49.048;8.396;2023-05-16T06:39:21;12.90;99.90
16271;DHT22;8243;49.048;8.396;2023-05-16T06:41:46;12.90;99.90
16271;DHT22;8243;49.048;8.396;2023-05-16T06:44:12;12.90;99.90
16271;DHT22;8243;49.048;8.396;2023-05-16T06:46:38;12.90;99.90
16271;DHT22;8243;49.048;8.396;2023-05-16T06:49:03;12.90;99.90
16271;DHT22;8243;49.048;8.396;2023-05-16T06:51:29;12.90;99.90
16271;DHT22;8243;49.048;8.396;2023-05-16T06:53:56;12.90;99.90
16271;DHT22;8243;49.048;8.396;2023-05-16T06:56:22;12.90;99.90
16271;DHT22;8243;49.048;8.396;2023-05-16T06:58:48;12.90;99.90
16271;DHT22;8243;49.048;8.396;2023-05-16T07:01:14;13.00;99.90
16271;DHT22;8243;49.048;8.396;2023-05-16T07:03:40;13.00;99.90
16271;DHT22;8243;49.048;8.396;2023-05-16T07:06:06;12.90;99.90
16271;DHT22;8243;49.048;8.396;2023-05-16T07:08:31;12.90;99.90
16271;DHT22;8243;49.048;8.396;2023-05-16T07:10:57;12.90;99.90
16271;DHT22;8243;49.048;8.396;2023-05-16T07:13:23;12.80;99.90
16271;DHT22;8243;49.048;8.396;2023-05-16T07:15:48;12.90;99.90
16271;DHT22;8243;49.048;8.396;2023-05-16T07:18:17;12.90;99.90
16271;DHT22;8243;49.048;8.396;2023-05-16T07:20:42;13.00;99.90
16271;DHT22;8243;49.048;8.396;2023-05-16T07:23:08;13.00;99.90
16271;DHT22;8243;49.048;8.396;2023-05-16T07:25:34;13.00;99.90
16271;DHT22;8243;49.048;8.396;2023-05-16T07:28:00;13.10;99.90
16271;DHT22;8243;49.048;8.396;2023-05-16T07:30:26;13.20;99.90
16271;DHT22;8243;49.048;8.396;2023-05-16T07:32:51;13.30;99.90
16271;DHT22;8243;49.048;8.396;2023-05-16T07:35:17;13.50;99.90
16271;DHT22;8243;49.048;8.396;2023-05-16T07:37:43;13.60;99.00
16271;DHT22;8243;49.048;8.396;2023-05-16T07:40:09;13.40;96.30
16271;DHT22;8243;49.048;8.396;2023-05-16T07:42:35;13.40;96.40
16271;DHT22;8243;49.048;8.396;2023-05-16T07:45:01;13.30;97.20
16271;DHT22;8243;49.048;8.396;2023-05-16T07:47:27;13.30;96.90
16271;DHT22;8243;49.048;8.396;2023-05-16T07:49:52;13.30;97.10
16271;DHT22;8243;49.048;8.396;2023-05-16T07:52:18;13.20;97.00
16271;DHT22;8243;49.048;8.396;2023-05-16T07:54:45;13.30;97.80
16271;DHT22;8243;49.048;8.396;2023-05-16T07:57:12;13.30;96.90
16271;DHT22;8243;49.048;8.396;2023-05-16T07:59:38;13.40;97.80
16271;DHT22;8243;49.048;8.396;2023-05-16T08:02:03;13.40;96.60
16271;DHT22;8243;49.048;8.396;2023-05-16T08:04:29;13.30;97.20
16271;DHT22;8243;49.048;8.396;2023-05-16T08:06:55;13.20;97.70
16271;DHT22;8243;49.048;8.396;2023-05-16T08:09:20;13.20;97.20
16271;DHT22;8243;49.048;8.396;2023-05-16T08:11:46;13.20;97.60
16271;DHT22;8243;49.048;8.396;2023-05-16T08:14:11;13.30;97.80
16271;DHT22;8243;49.048;8.396;2023-05-16T08:16:37;13.30;97.90
16271;DHT22;8243;49.048;8.396;2023-05-16T08:19:02;13.40;97.60
16271;DHT22;8243;49.048;8.396;2023-05-16T08:21:28;13.60;97.80
16271;DHT22;8243;49.048;8.396;2023-05-16T08:23:54;13.70;97.50
16271;DHT22;8243;49.048;8.396;2023-05-16T08:26:20;13.70;95.40
16271;DHT22;8243;49.048;8.396;2023-05-16T08:28:46;13.60;95.20
16271;DHT22;8243;49.048;8.396;2023-05-16T08:31:12;13.40;95.80
16271;DHT22;8243;49.048;8.396;2023-05-16T08:33:37;13.40;96.30
16271;DHT22;8243;49.048;8.396;2023-05-16T08:36:03;13.40;95.80
16271;DHT22;8243;49.048;8.396;2023-05-16T08:38:29;13.30;95.10
16271;DHT22;8243;49.048;8.396;2023-05-16T08:40:54;13.30;94.70
16271;DHT22;8243;49.048;8.396;2023-05-16T08:43:20;13.30;94.70
16271;DHT22;8243;49.048;8.396;2023-05-16T08:45:46;13.50;94.30
16271;DHT22;8243;49.048;8.396;2023-05-16T08:48:13;13.50;93.70
16271;DHT22;8243;49.048;8.396;2023-05-16T08:50:40;13.50;94.10
16271;DHT22;8243;49.048;8.396;2023-05-16T08:53:08;13.40;91.40
16271;DHT22;8243;49.048;8.396;2023-05-16T08:55:35;13.30;91.10
16271;DHT22;8243;49.048;8.396;2023-05-16T08:58:00;13.30;91.70
16271;DHT22;8243;49.048;8.396;2023-05-16T09:00:27;13.40;91.70
16271;DHT22;8243;49.048;8.396;2023-05-16T09:02:52;13.50;91.60
16271;DHT22;8243;49.048;8.396;2023-05-16T09:05:18;13.60;91.20
16271;DHT22;8243;49.048;8.396;2023-05-16T09:07:44;13.70;90.80
16271;DHT22;8243;49.048;8.396;2023-05-16T09:10:11;13.70;90.00
16271;DHT22;8243;49.048;8.396;2023-05-16T09:12:39;13.60;89.00
16271;DHT22;8243;49.048;8.396;2023-05-16T09:15:06;13.50;90.60
16271;DHT22;8243;49.048;8.396;2023-05-16T09:17:43;13.40;90.30
16271;DHT22;8243;49.048;8.396;2023-05-16T09:22:39;13.70;90.60
16271;DHT22;8243;49.048;8.396;2023-05-16T09:25:05;13.80;89.30
16271;DHT22;8243;49.048;8.396;2023-05-16T09:27:31;13.70;90.60
16271;DHT22;8243;49.048;8.396;2023-05-16T09:29:58;13.50;91.10
16271;DHT22;8243;49.048;8.396;2023-05-16T09:32:24;13.50;91.50
16271;DHT22;8243;49.048;8.396;2023-05-16T09:34:52;13.50;91.40
16271;DHT22;8243;49.048;8.396;2023-05-16T09:37:18;13.40;91.20
16271;DHT22;8243;49.048;8.396;2023-05-16T09:39:49;13.20;91.10
16271;DHT22;8243;49.048;8.396;2023-05-16T09:42:16;13.10;92.60
16271;DHT22;8243;49.048;8.396;2023-05-16T09:45:00;13.40;93.10
16271;DHT22;8243;49.048;8.396;2023-05-16T09:47:26;13.60;91.40
16271;DHT22;8243;49.048;8.396;2023-05-16T09:49:52;13.70;90.70
16271;DHT22;8243;49.048;8.396;2023-05-16T09:52:18;13.60;89.80
16271;DHT22;8243;49.048;8.396;2023-05-16T09:54:45;13.40;90.70
16271;DHT22;8243;49.048;8.396;2023-05-16T09:57:19;13.60;89.80
16271;DHT22;8243;49.048;8.396;2023-05-16T09:59:46;14.00;87.90
16271;DHT22;8243;49.048;8.396;2023-05-16T10:02:12;14.30;83.40
16271;DHT22;8243;49.048;8.396;2023-05-16T10:04:38;14.60;75.60
16271;DHT22;8243;49.048;8.396;2023-05-16T10:07:04;14.50;77.50
16271;DHT22;8243;49.048;8.396;2023-05-16T10:09:31;14.80;74.30
16271;DHT22;8243;49.048;8.396;2023-05-16T10:11:58;15.10;70.10
16271;DHT22;8243;49.048;8.396;2023-05-16T10:14:27;14.80;70.40
16271;DHT22;8243;49.048;8.396;2023-05-16T10:16:54;14.50;68.50
16271;DHT22;8243;49.048;8.396;2023-05-16T10:19:23;14.20;69.70
16271;DHT22;8243;49.048;8.396;2023-05-16T10:21:51;14.00;71.30
16271;DHT22;8243;49.048;8.396;2023-05-16T10:24:25;14.10;71.60
16271;DHT22;8243;49.048;8.396;2023-05-16T10:26:53;14.10;71.10
16271;DHT22;8243;49.048;8.396;2023-05-16T10:29:19;14.00;68.40
16271;DHT22;8243;49.048;8.396;2023-05-16T10:31:47;13.70;71.20
16271;DHT22;8243;49.048;8.396;2023-05-16T10:34:13;13.80;70.90
16271;DHT22;8243;49.048;8.396;2023-05-16T10:36:40;13.80;69.50
16271;DHT22;8243;49.048;8.396;2023-05-16T10:39:06;13.70;69.70
16271;DHT22;8243;49.048;8.396;2023-05-16T10:41:33;13.50;69.90
16271;DHT22;8243;49.048;8.396;2023-05-16T10:43:59;13.40;70.90
16271;DHT22;8243;49.048;8.396;2023-05-16T10:46:27;13.50;70.70
16271;DHT22;8243;49.048;8.396;2023-05-16T10:48:54;13.40;69.10
16271;DHT22;8243;49.048;8.396;2023-05-16T10:53:54;13.00;71.20
16271;DHT22;8243;49.048;8.396;2023-05-16T10:56:24;13.10;73.00
16271;DHT22;8243;49.048;8.396;2023-05-16T10:58:52;13.00;72.10
16271;DHT22;8243;49.048;8.396;2023-05-16T11:01:35;12.90;73.30
16271;DHT22;8243;49.048;8.396;2023-05-16T11:04:08;13.00;72.40
16271;DHT22;8243;49.048;8.396;2023-05-16T11:14:05;13.50;68.50
16271;DHT22;8243;49.048;8.396;2023-05-16T11:16:33;13.20;68.30
16271;DHT22;8243;49.048;8.396;2023-05-16T11:19:08;13.10;68.50
16271;DHT22;8243;49.048;8.396;2023-05-16T11:22:12;13.10;67.30
16271;DHT22;8243;49.048;8.396;2023-05-16T11:25:04;13.10;67.40
16271;DHT22;8243;49.048;8.396;2023-05-16T11:30:00;13.60;66.60
16271;DHT22;8243;49.048;8.396;2023-05-16T11:32:36;14.00;61.50
16271;DHT22;8243;49.048;8.396;2023-05-16T11:35:03;14.00;62.10
16271;DHT22;8243;49.048;8.396;2023-05-16T11:37:30;13.90;58.30
16271;DHT22;8243;49.048;8.396;2023-05-16T11:40:02;13.90;58.70
16271;DHT22;8243;49.048;8.396;2023-05-16T11:42:34;13.90;60.40
16271;DHT22;8243;49.048;8.396;2023-05-16T11:45:08;13.80;61.00
16271;DHT22;8243;49.048;8.396;2023-05-16T11:47:37;13.90;61.60
16271;DHT22;8243;49.048;8.396;2023-05-16T11:50:10;14.10;59.30
16271;DHT22;8243;49.048;8.396;2023-05-16T11:52:37;14.00;57.50
16271;DHT22;8243;49.048;8.396;2023-05-16T11:55:06;14.20;56.40
16271;DHT22;8243;49.048;8.396;2023-05-16T11:57:32;14.60;55.30
16271;DHT22;8243;49.048;8.396;2023-05-16T12:00:04;14.70;52.90
16271;DHT22;8243;49.048;8.396;2023-05-16T12:02:38;14.50;52.50
16271;DHT22;8243;49.048;8.396;2023-05-16T12:05:08;14.50;49.10
16271;DHT22;8243;49.048;8.396;2023-05-16T12:07:35;14.60;46.10
16271;DHT22;8243;49.048;8.396;2023-05-16T12:10:08;14.60;46.40
16271;DHT22;8243;49.048;8.396;2023-05-16T12:12:35;14.40;46.10
16271;DHT22;8243;49.048;8.396;2023-05-16T12:15:02;14.50;49.60
16271;DHT22;8243;49.048;8.396;2023-05-16T12:17:28;14.00;53.70
16271;DHT22;8243;49.048;8.396;2023-05-16T12:19:54;13.90;55.90
16271;DHT22;8243;49.048;8.396;2023-05-16T12:22:20;13.70;56.30
16271;DHT22;8243;49.048;8.396;2023-05-16T12:24:46;13.50;57.60
16271;DHT22;8243;49.048;8.396;2023-05-16T12:27:11;13.40;59.60
16271;DHT22;8243;49.048;8.396;2023-05-16T12:29:37;13.40;58.10
16271;DHT22;8243;49.048;8.396;2023-05-16T12:32:03;13.40;58.70
16271;DHT22;8243;49.048;8.396;2023-05-16T12:34:32;13.70;59.70
16271;DHT22;8243;49.048;8.396;2023-05-16T12:36:58;13.90;56.20
16271;DHT22;8243;49.048;8.396;2023-05-16T12:39:23;13.60;55.80
16271;DHT22;8243;49.048;8.396;2023-05-16T12:41:49;13.50;58.30
16271;DHT22;8243;49.048;8.396;2023-05-16T12:44:16;13.50;59.00
16271;DHT22;8243;49.048;8.396;2023-05-16T12:46:45;13.40;58.90
16271;DHT22;8243;49.048;8.396;2023-05-16T12:49:14;13.20;59.80
16271;DHT22;8243;49.048;8.396;2023-05-16T12:51:46;13.30;59.00
16271;DHT22;8243;49.048;8.396;2023-05-16T12:54:12;13.30;58.40
16271;DHT22;8243;49.048;8.396;2023-05-16T12:56:39;13.40;58.20
16271;DHT22;8243;49.048;8.396;2023-05-16T12:59:05;13.40;57.90
16271;DHT22;8243;49.048;8.396;2023-05-16T13:01:31;13.50;57.50
16271;DHT22;8243;49.048;8.396;2023-05-16T13:03:57;13.60;55.10
16271;DHT22;8243;49.048;8.396;2023-05-16T13:06:23;13.70;54.00
16271;DHT22;8243;49.048;8.396;2023-05-16T13:08:49;13.70;52.40
16271;DHT22;8243;49.048;8.396;2023-05-16T13:11:14;14.00;53.00
16271;DHT22;8243;49.048;8.396;2023-05-16T13:13:40;14.20;50.80
16271;DHT22;8243;49.048;8.396;2023-05-16T13:16:05;14.30;47.60
16271;DHT22;8243;49.048;8.396;2023-05-16T13:18:31;14.20;47.40
16271;DHT22;8243;49.048;8.396;2023-05-16T13:20:58;14.10;43.60
16271;DHT22;8243;49.048;8.396;2023-05-16T13:23:24;13.80;43.20
16271;DHT22;8243;49.048;8.396;2023-05-16T13:25:51;13.60;44.00
16271;DHT22;8243;49.048;8.396;2023-05-16T13:28:17;13.50;43.70
16271;DHT22;8243;49.048;8.396;2023-05-16T13:30:43;13.60;44.80
16271;DHT22;8243;49.048;8.396;2023-05-16T13:33:08;13.70;43.80
16271;DHT22;8243;49.048;8.396;2023-05-16T13:35:34;13.70;42.30
16271;DHT22;8243;49.048;8.396;2023-05-16T13:37:59;13.60;42.20
16271;DHT22;8243;49.048;8.396;2023-05-16T13:40:25;13.60;41.10
16271;DHT22;8243;49.048;8.396;2023-05-16T13:42:50;13.60;40.40
16271;DHT22;8243;49.048;8.396;2023-05-16T13:45:16;13.60;38.80
16271;DHT22;8243;49.048;8.396;2023-05-16T13:47:41;13.60;39.00
16271;DHT22;8243;49.048;8.396;2023-05-16T13:50:07;13.80;37.50
16271;DHT22;8243;49.048;8.396;2023-05-16T13:52:38;13.70;34.60
16271;DHT22;8243;49.048;8.396;2023-05-16T13:55:04;13.70;34.40
16271;DHT22;8243;49.048;8.396;2023-05-16T13:57:30;13.70;35.30
16271;DHT22;8243;49.048;8.396;2023-05-16T13:59:56;14.00;34.10
16271;DHT22;8243;49.048;8.396;2023-05-16T14:02:21;14.00;34.10
16271;DHT22;8243;49.048;8.396;2023-05-16T14:04:49;14.30;31.30
16271;DHT22;8243;49.048;8.396;2023-05-16T14:07:14;14.50;31.40
16271;DHT22;8243;49.048;8.396;2023-05-16T14:09:40;14.60;30.00
16271;DHT22;8243;49.048;8.396;2023-05-16T14:12:07;14.50;30.10
16271;DHT22;8243;49.048;8.396;2023-05-16T14:14:36;14.10;29.80
16271;DHT22;8243;49.048;8.396;2023-05-16T14:17:02;14.00;29.90
16271;DHT22;8243;49.048;8.396;2023-05-16T14:19:29;14.00;30.00
16271;DHT22;8243;49.048;8.396;2023-05-16T14:21:54;13.90;30.10
16271;DHT22;8243;49.048;8.396;2023-05-16T14:24:20;13.90;30.40
16271;DHT22;8243;49.048;8.396;2023-05-16T14:26:46;14.00;30.40
16271;DHT22;8243;49.048;8.396;2023-05-16T14:29:12;14.10;29.90
16271;DHT22;8243;49.048;8.396;2023-05-16T14:31:38;14.30;28.20
16271;DHT22;8243;49.048;8.396;2023-05-16T14:34:05;14.40;26.30
16271;DHT22;8243;49.048;8.396;2023-05-16T14:36:31;14.30;23.90
16271;DHT22;8243;49.048;8.396;2023-05-16T14:38:57;14.40;22.90
16271;DHT22;8243;49.048;8.396;2023-05-16T14:41:22;14.30;22.90
16271;DHT22;8243;49.048;8.396;2023-05-16T14:43:49;14.40;21.80
16271;DHT22;8243;49.048;8.396;2023-05-16T14:46:14;14.50;22.80
16271;DHT22;8243;49.048;8.396;2023-05-16T14:48:41;14.70;20.70
16271;DHT22;8243;49.048;8.396;2023-05-16T14:51:07;14.70;19.80
16271;DHT22;8243;49.048;8.396;2023-05-16T14:53:32;14.80;19.40
16271;DHT22;8243;49.048;8.396;2023-05-16T14:55:58;14.80;18.90
16271;DHT22;8243;49.048;8.396;2023-05-16T14:58:23;14.90;18.80
16271;DHT22;8243;49.048;8.396;2023-05-16T15:00:50;15.00;18.60
16271;DHT22;8243;49.048;8.396;2023-05-16T15:03:16;15.30;18.10
16271;DHT22;8243;49.048;8.396;2023-05-16T15:05:44;15.20;17.70
16271;DHT22;8243;49.048;8.396;2023-05-16T15:08:10;15.20;17.00
16271;DHT22;8243;49.048;8.396;2023-05-16T15:10:35;15.10;17.80
16271;DHT22;8243;49.048;8.396;2023-05-16T15:13:01;15.10;17.60
16271;DHT22;8243;49.048;8.396;2023-05-16T15:15:27;15.10;18.00
16271;DHT22;8243;49.048;8.396;2023-05-16T15:17:53;15.30;17.60
16271;DHT22;8243;49.048;8.396;2023-05-16T15:20:19;15.10;16.90
16271;DHT22;8243;49.048;8.396;2023-05-16T15:22:45;15.00;17.50
16271;DHT22;8243;49.048;8.396;2023-05-16T15:25:11;15.10;17.00
16271;DHT22;8243;49.048;8.396;2023-05-16T15:27:36;15.10;17.50
16271;DHT22;8243;49.048;8.396;2023-05-16T15:30:02;15.20;17.40
16271;DHT22;8243;49.048;8.396;2023-05-16T15:32:28;15.30;17.50
16271;DHT22;8243;49.048;8.396;2023-05-16T15:34:53;15.30;17.60
16271;DHT22;8243;49.048;8.396;2023-05-16T15:37:19;15.30;16.90
16271;DHT22;8243;49.048;8.396;2023-05-16T15:39:45;15.30;16.60
16271;DHT22;8243;49.048;8.396;2023-05-16T15:42:11;15.40;16.80
16271;DHT22;8243;49.048;8.396;2023-05-16T15:44:37;15.20;17.10
16271;DHT22;8243;49.048;8.396;2023-05-16T15:47:03;15.40;16.40
16271;DHT22;8243;49.048;8.396;2023-05-16T15:49:28;15.30;16.70
16271;DHT22;8243;49.048;8.396;2023-05-16T15:51:54;15.30;16.50
16271;DHT22;8243;49.048;8.396;2023-05-16T15:54:20;15.50;16.40
16271;DHT22;8243;49.048;8.396;2023-05-16T15:56:45;15.50;16.20
16271;DHT22;8243;49.048;8.396;2023-05-16T15:59:11;15.60;16.00
16271;DHT22;8243;49.048;8.396;2023-05-16T16:01:37;15.80;15.90
16271;DHT22;8243;49.048;8.396;2023-05-16T16:04:03;15.90;16.10
16271;DHT22;8243;49.048;8.396;2023-05-16T16:06:28;16.10;16.10
16271;DHT22;8243;49.048;8.396;2023-05-16T16:08:54;16.20;17.00
16271;DHT22;8243;49.048;8.396;2023-05-16T16:11:19;16.00;15.30
16271;DHT22;8243;49.048;8.396;2023-05-16T16:13:49;15.80;14.60
16271;DHT22;8243;49.048;8.396;2023-05-16T16:16:15;15.70;12.80